createdAt,value
2022-11-05T00:00:37.340Z,19.63
2022-11-05T00:03:22.774Z,16.30
2022-11-05T00:06:11.565Z,17.83
2022-11-05T00:08:57.921Z,15.77
2022-11-05T00:11:44.301Z,16.83
2022-11-05T00:14:29.651Z,15.75
2022-11-05T00:16:56.017Z,14.93
2022-11-05T00:19:22.388Z,16.77
2022-11-05T00:22:07.156Z,14.00
2022-11-05T00:24:51.993Z,13.15
2022-11-05T00:27:18.443Z,12.95
2022-11-05T00:29:44.899Z,9.98
2022-11-05T00:32:11.390Z,9.80
2022-11-05T00:34:37.770Z,13.10
2022-11-05T00:37:04.127Z,11.95
2022-11-05T00:39:30.503Z,10.20
2022-11-05T00:42:15.612Z,8.93
2022-11-05T00:45:00.485Z,9.23
2022-11-05T00:47:45.722Z,11.75
2022-11-05T00:50:12.985Z,11.80
2022-11-05T00:52:58.141Z,12.57
2022-11-05T00:55:35.269Z,24.80
2022-11-05T00:58:03.155Z,10.57
2022-11-05T01:00:31.521Z,11.73
2022-11-05T01:02:59.846Z,14.30
2022-11-05T01:05:26.573Z,11.93
2022-11-05T01:07:53.228Z,10.68
2022-11-05T01:10:20.825Z,8.38
2022-11-05T01:12:48.004Z,11.65
2022-11-05T01:15:15.089Z,8.73
2022-11-05T01:17:41.521Z,12.52
2022-11-05T01:20:08.350Z,9.48
2022-11-05T01:22:34.735Z,9.60
2022-11-05T01:25:01.229Z,7.40
2022-11-05T01:27:27.605Z,10.20
2022-11-05T01:29:53.969Z,6.10
2022-11-05T01:32:20.378Z,5.32
2022-11-05T01:34:46.788Z,6.57
2022-11-05T01:37:13.680Z,6.18
2022-11-05T01:39:40.064Z,7.53
2022-11-05T01:42:22.242Z,5.10
2022-11-05T01:44:56.163Z,6.28
2022-11-05T01:47:44.226Z,5.18
2022-11-05T01:50:23.799Z,5.05
2022-11-05T01:52:54.100Z,5.82
2022-11-05T01:55:24.721Z,5.25
2022-11-05T01:57:54.320Z,5.95
2022-11-05T02:00:20.754Z,5.25
2022-11-05T02:02:47.874Z,4.75
2022-11-05T02:05:15.482Z,4.03
2022-11-05T02:07:46.410Z,2.92
2022-11-05T02:10:15.813Z,5.20
2022-11-05T02:12:45.542Z,4.38
2022-11-05T02:15:14.523Z,4.57
2022-11-05T02:18:19.285Z,5.53
2022-11-05T02:20:59.202Z,6.63
2022-11-05T02:23:34.221Z,6.75
2022-11-05T02:26:22.403Z,5.68
2022-11-05T02:29:11.648Z,2.60
2022-11-05T02:31:52.244Z,3.13
2022-11-05T02:34:27.646Z,4.93
2022-11-05T02:37:15.796Z,3.08
2022-11-05T02:39:45.259Z,3.95
2022-11-05T02:42:26.400Z,4.32
2022-11-05T02:45:14.510Z,3.75
2022-11-05T02:48:01.945Z,3.10
2022-11-05T02:50:36.247Z,3.22
2022-11-05T02:53:32.481Z,4.28
2022-11-05T02:56:18.163Z,5.38
2022-11-05T02:58:44.538Z,6.80
2022-11-05T03:01:14.095Z,4.00
2022-11-05T03:03:44.639Z,3.42
2022-11-05T03:06:47.356Z,4.15
2022-11-05T03:09:47.535Z,5.57
2022-11-05T03:12:26.229Z,4.20
2022-11-05T03:15:15.420Z,3.38
2022-11-05T03:17:53.469Z,2.40
2022-11-05T03:20:25.724Z,2.95
2022-11-05T03:23:00.556Z,5.75
2022-11-05T03:25:30.315Z,7.63
2022-11-05T03:28:02.850Z,3.45
2022-11-05T03:30:31.984Z,4.85
2022-11-05T03:33:03.177Z,4.57
2022-11-05T03:35:34.244Z,3.97
2022-11-05T03:38:06.287Z,5.28
2022-11-05T03:40:36.518Z,4.85
2022-11-05T03:43:08.455Z,5.22
2022-11-05T03:45:40.459Z,3.78
2022-11-05T03:48:10.456Z,4.45
2022-11-05T03:51:07.731Z,3.45
2022-11-05T03:53:42.854Z,3.28
2022-11-05T03:56:18.116Z,3.65
2022-11-05T03:58:46.427Z,3.13
2022-11-05T04:01:13.141Z,5.72
2022-11-05T04:03:39.602Z,5.45
2022-11-05T04:06:26.542Z,3.08
2022-11-05T04:09:11.753Z,2.65
2022-11-05T04:11:56.917Z,3.47
2022-11-05T04:14:23.308Z,3.60
2022-11-05T04:17:08.720Z,4.10
2022-11-05T04:20:04.116Z,4.32
2022-11-05T04:22:52.045Z,4.78
2022-11-05T04:25:19.481Z,3.72
2022-11-05T04:27:46.755Z,3.65
2022-11-05T04:30:18.349Z,6.00
2022-11-05T04:32:59.606Z,5.25
2022-11-05T04:35:28.097Z,4.55
2022-11-05T04:37:54.472Z,4.65
2022-11-05T04:40:20.903Z,5.25
2022-11-05T04:42:47.290Z,4.22
2022-11-05T04:45:13.792Z,4.80
2022-11-05T04:47:40.200Z,6.78
2022-11-05T04:50:06.708Z,7.03
2022-11-05T04:52:33.057Z,5.82
2022-11-05T04:54:59.433Z,5.82
2022-11-05T04:57:25.790Z,7.63
2022-11-05T04:59:52.170Z,7.10
2022-11-05T05:02:18.785Z,10.48
2022-11-05T05:04:45.185Z,12.07
2022-11-05T05:07:11.545Z,12.38
2022-11-05T05:09:37.911Z,12.88
2022-11-05T05:12:04.418Z,11.27
2022-11-05T05:14:30.810Z,10.30
2022-11-05T05:16:57.236Z,10.35
2022-11-05T05:19:24.550Z,12.55
2022-11-05T05:21:51.108Z,11.23
2022-11-05T05:24:19.365Z,12.50
2022-11-05T05:26:48.061Z,12.88
2022-11-05T05:29:15.415Z,14.35
2022-11-05T05:31:42.510Z,12.02
2022-11-05T05:34:12.623Z,14.55
2022-11-05T05:36:39.022Z,14.23
2022-11-05T05:39:06.922Z,14.43
2022-11-05T05:41:33.490Z,12.48
2022-11-05T05:44:00.003Z,13.18
2022-11-05T05:46:26.402Z,12.82
2022-11-05T05:48:52.821Z,12.40
2022-11-05T05:51:19.741Z,13.35
2022-11-05T05:53:46.290Z,9.35
2022-11-05T05:56:14.958Z,13.70
2022-11-05T05:58:41.801Z,13.55
2022-11-05T06:01:17.240Z,13.88
2022-11-05T06:03:45.203Z,15.82
2022-11-05T06:06:13.085Z,15.75
2022-11-05T06:08:39.805Z,12.50
2022-11-05T06:11:07.031Z,12.35
2022-11-05T06:13:33.836Z,16.75
2022-11-05T06:16:05.620Z,16.85
2022-11-05T06:18:32.887Z,13.73
2022-11-05T06:21:07.462Z,13.13
2022-11-05T06:23:35.470Z,14.75
2022-11-05T06:26:04.048Z,14.00
2022-11-05T06:28:30.728Z,13.65
2022-11-05T06:30:57.579Z,16.10
2022-11-05T06:33:24.064Z,13.05
2022-11-05T06:35:50.486Z,13.85
2022-11-05T06:38:17.013Z,14.48
2022-11-05T06:40:43.446Z,15.43
2022-11-05T06:43:10.317Z,13.32
2022-11-05T06:45:37.032Z,15.18
2022-11-05T06:48:03.515Z,11.60
2022-11-05T06:50:29.902Z,11.05
2022-11-05T06:52:58.072Z,12.32
2022-11-05T06:55:27.067Z,10.73
2022-11-05T06:57:53.575Z,10.77
2022-11-05T07:00:20.129Z,8.52
2022-11-05T07:02:46.752Z,6.93
2022-11-05T07:05:14.542Z,5.00
2022-11-05T07:07:41.907Z,3.05
2022-11-05T07:10:12.147Z,3.42
2022-11-05T07:12:38.737Z,2.55
2022-11-05T07:15:05.959Z,2.38
2022-11-05T07:17:32.384Z,2.15
2022-11-05T07:19:58.800Z,6.40
2022-11-05T07:22:25.199Z,3.25
2022-11-05T07:24:51.557Z,4.22
2022-11-05T07:27:17.942Z,2.55
2022-11-05T07:29:44.294Z,8.13
2022-11-05T07:32:10.674Z,4.10
2022-11-05T07:34:37.042Z,2.08
2022-11-05T07:37:03.529Z,2.45
2022-11-05T07:39:29.894Z,3.42
2022-11-05T07:41:57.651Z,1.38
2022-11-05T07:44:31.535Z,1.30
2022-11-05T07:46:57.886Z,1.50
2022-11-05T07:49:24.235Z,1.30
2022-11-05T07:51:50.635Z,2.10
2022-11-05T07:54:17.026Z,3.78
2022-11-05T07:56:43.393Z,2.95
2022-11-05T07:59:09.825Z,4.88
2022-11-05T08:01:36.344Z,2.25
2022-11-05T08:04:02.896Z,2.47
2022-11-05T08:06:29.277Z,1.75
2022-11-05T08:08:55.846Z,5.78
2022-11-05T08:11:22.212Z,6.03
2022-11-05T08:13:48.567Z,3.13
2022-11-05T08:16:15.476Z,4.35
2022-11-05T08:18:41.900Z,2.55
2022-11-05T08:21:09.448Z,2.00
2022-11-05T08:23:35.905Z,2.35
2022-11-05T08:26:03.557Z,1.95
2022-11-05T08:28:30.203Z,1.40
2022-11-05T08:30:57.564Z,3.10
2022-11-05T08:33:25.432Z,2.30
2022-11-05T08:35:51.911Z,5.43
2022-11-05T08:38:19.916Z,5.70
2022-11-05T08:40:55.577Z,7.45
2022-11-05T08:43:22.448Z,6.53
2022-11-05T08:45:49.271Z,9.32
2022-11-05T08:48:18.662Z,8.77
2022-11-05T08:50:46.847Z,8.30
2022-11-05T08:53:14.321Z,12.32
2022-11-05T08:55:40.993Z,11.77
2022-11-05T08:58:12.371Z,9.98
2022-11-05T09:03:07.340Z,15.13
2022-11-05T09:05:39.034Z,17.05
2022-11-05T09:08:06.722Z,22.25
2022-11-05T09:10:33.512Z,23.25
2022-11-05T09:12:59.866Z,20.42
2022-11-05T09:15:26.622Z,24.80
2022-11-05T09:17:53.040Z,24.50
2022-11-05T09:20:19.519Z,25.40
2022-11-05T09:22:46.664Z,26.10
2022-11-05T09:25:13.658Z,26.40
2022-11-05T09:27:39.991Z,26.17
2022-11-05T09:30:06.957Z,25.42
2022-11-05T09:32:33.679Z,27.23
2022-11-05T09:35:01.128Z,24.42
2022-11-05T09:37:28.125Z,25.50
2022-11-05T09:39:54.891Z,24.02
2022-11-05T09:42:25.194Z,21.02
2022-11-05T09:45:08.564Z,22.00
2022-11-05T09:47:40.129Z,23.25
2022-11-05T09:50:12.573Z,19.88
2022-11-05T09:52:38.967Z,20.92
2022-11-05T09:55:18.638Z,18.67
2022-11-05T09:57:55.881Z,20.92
2022-11-05T10:00:22.536Z,19.17
2022-11-05T10:02:56.320Z,20.38
2022-11-05T10:05:25.234Z,23.17
2022-11-05T10:07:57.375Z,23.48
2022-11-05T10:10:41.206Z,20.63
2022-11-05T10:13:45.229Z,18.38
2022-11-05T10:16:31.977Z,17.50
2022-11-05T10:19:16.102Z,20.58
2022-11-05T10:22:05.521Z,18.48
2022-11-05T10:24:29.509Z,15.07
2022-11-05T10:26:57.294Z,16.83
2022-11-05T10:29:29.156Z,18.83
2022-11-05T10:31:57.975Z,13.85
2022-11-05T10:34:30.610Z,15.82
2022-11-05T10:36:57.313Z,14.57
2022-11-05T10:39:24.905Z,17.15
2022-11-05T10:42:30.907Z,15.85
2022-11-05T10:45:19.587Z,30.25
2022-11-05T10:48:15.189Z,15.52
2022-11-05T10:50:44.145Z,16.90
2022-11-05T10:53:19.199Z,16.27
2022-11-05T10:55:50.923Z,14.75
2022-11-05T10:58:21.862Z,15.25
2022-11-05T11:01:04.111Z,12.52
2022-11-05T11:03:41.645Z,12.55
2022-11-05T11:06:27.216Z,15.38
2022-11-05T11:08:56.958Z,10.73
2022-11-05T11:11:29.238Z,7.93
2022-11-05T11:14:04.603Z,8.98
2022-11-05T11:16:37.619Z,7.95
2022-11-05T11:19:20.741Z,7.47
2022-11-05T11:22:11.179Z,6.70
2022-11-05T11:24:56.901Z,7.80
2022-11-05T11:27:30.189Z,6.15
2022-11-05T11:30:04.977Z,7.07
2022-11-05T11:32:37.278Z,5.72
2022-11-05T11:35:06.733Z,6.25
2022-11-05T11:37:42.583Z,7.85
2022-11-05T11:40:31.344Z,7.68
2022-11-05T11:43:01.628Z,8.32
2022-11-05T11:45:37.387Z,8.35
2022-11-05T11:48:14.679Z,9.65
2022-11-05T11:50:43.714Z,9.68
2022-11-05T11:53:22.107Z,12.65
2022-11-05T11:55:59.323Z,12.38
2022-11-05T11:58:47.493Z,12.20
2022-11-05T12:01:19.939Z,11.98
2022-11-05T12:03:57.506Z,11.65
2022-11-05T12:06:39.227Z,10.30
2022-11-05T12:09:23.344Z,7.82
2022-11-05T12:11:56.420Z,11.13
2022-11-05T12:14:46.597Z,15.15
2022-11-05T12:17:21.988Z,17.65
2022-11-05T12:20:19.854Z,17.13
2022-11-05T12:22:56.442Z,15.82
2022-11-05T12:25:35.796Z,17.85
2022-11-05T12:28:24.164Z,13.35
2022-11-05T12:31:11.819Z,13.15
2022-11-05T12:34:10.643Z,14.35
2022-11-05T12:36:42.506Z,14.93
2022-11-05T12:39:19.164Z,13.80
2022-11-05T12:42:17.248Z,14.60
2022-11-05T12:45:01.798Z,16.20
2022-11-05T12:47:46.250Z,19.17
2022-11-05T12:50:15.787Z,18.23
2022-11-05T12:53:14.878Z,16.17
2022-11-05T12:55:48.816Z,15.32
2022-11-05T12:58:34.639Z,13.75
2022-11-05T13:01:13.181Z,17.50
2022-11-05T13:03:58.558Z,12.95
2022-11-05T13:06:36.338Z,13.43
2022-11-05T13:09:12.271Z,12.27
2022-11-05T13:11:45.230Z,12.45
2022-11-05T13:14:16.092Z,8.48
2022-11-05T13:16:47.272Z,8.27
2022-11-05T13:19:21.179Z,9.68
2022-11-05T13:21:53.972Z,8.63
2022-11-05T13:24:49.630Z,10.98
2022-11-05T13:27:18.964Z,9.40
2022-11-05T13:29:57.141Z,11.32
2022-11-05T13:32:31.112Z,11.80
2022-11-05T13:35:00.867Z,9.07
2022-11-05T13:37:49.963Z,10.07
2022-11-05T13:40:20.132Z,10.90
2022-11-05T13:43:05.280Z,12.65
2022-11-05T13:46:05.662Z,12.07
2022-11-05T13:48:57.181Z,14.27
2022-11-05T13:51:51.868Z,15.85
2022-11-05T13:54:45.327Z,18.48
2022-11-05T13:57:32.250Z,17.73
2022-11-05T14:00:08.933Z,16.02
2022-11-05T14:02:40.457Z,15.25
2022-11-05T14:05:19.198Z,19.50
2022-11-05T14:07:47.531Z,18.58
2022-11-05T14:10:21.641Z,18.80
2022-11-05T14:12:51.597Z,18.30
2022-11-05T14:15:22.766Z,16.35
2022-11-05T14:18:02.003Z,21.08
2022-11-05T14:20:31.127Z,17.35
2022-11-05T14:23:22.982Z,22.00
2022-11-05T14:26:13.510Z,19.58
2022-11-05T14:28:51.444Z,17.70
2022-11-05T14:31:40.984Z,20.73
2022-11-05T14:34:20.414Z,16.75
2022-11-05T14:37:13.980Z,17.67
2022-11-05T14:39:41.253Z,19.88
2022-11-05T14:42:28.780Z,23.08
2022-11-05T14:44:58.429Z,20.10
2022-11-05T14:47:28.228Z,17.40
2022-11-05T14:50:03.003Z,20.42
2022-11-05T14:52:29.464Z,17.75
2022-11-05T14:54:58.132Z,20.25
2022-11-05T14:57:42.530Z,20.40
2022-11-05T15:00:28.355Z,19.05
2022-11-05T15:03:03.593Z,21.73
2022-11-05T15:05:48.005Z,26.10
2022-11-05T15:08:24.725Z,20.85
2022-11-05T15:10:54.240Z,22.05
2022-11-05T15:13:34.111Z,20.05
2022-11-05T15:16:00.483Z,23.08
2022-11-05T15:18:35.169Z,23.60
2022-11-05T15:21:04.781Z,18.08
2022-11-05T15:23:40.634Z,23.05
2022-11-05T15:26:12.343Z,24.58
2022-11-05T15:28:43.274Z,24.80
2022-11-05T15:31:12.621Z,25.58
2022-11-05T15:33:44.466Z,21.83
2022-11-05T15:36:31.203Z,20.13
2022-11-05T15:39:23.325Z,24.67
2022-11-05T15:41:44.916Z,25.15
2022-11-05T15:44:32.011Z,25.60
2022-11-05T15:47:22.107Z,24.17
2022-11-05T15:49:58.690Z,24.73
2022-11-05T15:52:35.847Z,23.67
2022-11-05T15:55:14.362Z,23.90
2022-11-05T15:57:55.448Z,23.92
2022-11-05T16:00:27.716Z,24.02
2022-11-05T16:03:17.324Z,23.95
2022-11-05T16:05:46.289Z,28.10
2022-11-05T16:08:18.840Z,25.63
2022-11-05T16:10:53.091Z,28.35
2022-11-05T16:13:32.052Z,27.15
2022-11-05T16:16:01.296Z,27.27
2022-11-05T16:18:34.392Z,24.67
2022-11-05T16:21:08.020Z,27.50
2022-11-05T16:23:49.532Z,30.55
2022-11-05T16:29:39.185Z,29.65
2022-11-05T16:32:15.044Z,28.98
2022-11-05T16:34:46.604Z,28.95
2022-11-05T16:37:15.595Z,36.25
2022-11-05T16:39:41.992Z,29.50
2022-11-05T16:42:36.893Z,36.67
2022-11-05T16:45:07.340Z,29.85
2022-11-05T16:47:36.986Z,29.15
2022-11-05T16:50:14.533Z,36.35
2022-11-05T16:52:40.982Z,30.83
2022-11-05T16:55:08.936Z,33.38
2022-11-05T16:57:35.940Z,32.67
2022-11-05T17:00:02.427Z,27.02
2022-11-05T17:02:28.929Z,30.02
2022-11-05T17:04:55.486Z,29.85
2022-11-05T17:07:22.010Z,27.98
2022-11-05T17:09:48.563Z,35.47
2022-11-05T17:12:15.335Z,32.67
2022-11-05T17:14:41.739Z,43.22
2022-11-05T17:17:08.196Z,41.88
2022-11-05T17:19:34.725Z,39.40
2022-11-05T17:22:01.143Z,37.90
2022-11-05T17:24:27.613Z,34.75
2022-11-05T17:26:54.600Z,29.25
2022-11-05T17:29:21.053Z,31.67
2022-11-05T17:31:47.485Z,30.27
2022-11-05T17:34:13.896Z,34.92
2022-11-05T17:36:40.237Z,33.85
2022-11-05T17:39:06.725Z,37.03
2022-11-05T17:41:33.144Z,35.92
2022-11-05T17:44:00.240Z,34.58
2022-11-05T17:46:26.779Z,37.58
2022-11-05T17:48:53.218Z,33.30
2022-11-05T17:51:20.342Z,34.30
2022-11-05T17:53:48.940Z,32.72
2022-11-05T17:56:28.937Z,37.80
2022-11-05T17:59:00.108Z,31.45
2022-11-05T18:01:29.850Z,31.00
2022-11-05T18:03:56.613Z,33.78
2022-11-05T18:06:23.059Z,32.15
2022-11-05T18:08:49.547Z,34.70
2022-11-05T18:11:16.180Z,35.25
2022-11-05T18:13:42.798Z,38.67
2022-11-05T18:16:09.183Z,44.45
2022-11-05T18:18:35.650Z,39.47
2022-11-05T18:21:02.044Z,38.22
2022-11-05T18:23:28.418Z,45.17
2022-11-05T18:25:54.803Z,49.38
2022-11-05T18:28:21.206Z,45.28
2022-11-05T18:30:47.597Z,46.08
2022-11-05T18:33:14.399Z,38.83
2022-11-05T18:35:44.878Z,43.72
2022-11-05T18:38:11.607Z,37.40
2022-11-05T18:40:38.330Z,37.47
2022-11-05T18:43:04.715Z,34.95
2022-11-05T18:45:33.221Z,35.92
2022-11-05T18:48:01.505Z,34.03
2022-11-05T18:50:29.024Z,31.33
2022-11-05T18:52:56.158Z,38.53
2022-11-05T18:55:23.564Z,46.78
2022-11-05T18:57:50.038Z,41.10
2022-11-05T19:00:16.785Z,46.78
2022-11-05T19:02:43.335Z,49.35
2022-11-05T19:07:56.859Z,61.67
2022-11-05T19:10:23.394Z,49.90
2022-11-05T19:12:50.129Z,58.97
2022-11-05T19:15:16.927Z,47.05
2022-11-05T19:17:43.621Z,32.50
2022-11-05T19:20:10.661Z,29.08
2022-11-05T19:22:37.208Z,28.73
2022-11-05T19:25:05.015Z,30.15
2022-11-05T19:27:31.423Z,86.07
2022-11-05T19:29:57.794Z,29.67
2022-11-05T19:32:24.424Z,33.88
2022-11-05T19:34:50.795Z,36.22
2022-11-05T19:37:17.234Z,128.30
2022-11-05T19:39:43.836Z,55.40
2022-11-05T19:42:10.205Z,63.88
2022-11-05T19:44:36.650Z,60.28
2022-11-05T19:47:03.071Z,111.35
2022-11-05T19:49:29.431Z,55.92
2022-11-05T19:51:56.036Z,51.70
2022-11-05T19:54:22.644Z,68.05
2022-11-05T19:56:50.178Z,51.67
2022-11-05T19:59:16.675Z,44.38
2022-11-05T20:01:43.199Z,40.25
2022-11-05T20:04:11.806Z,46.58
2022-11-05T20:06:39.999Z,41.58
2022-11-05T20:09:27.106Z,36.65
2022-11-05T20:11:56.070Z,32.00
2022-11-05T20:14:23.881Z,34.50
2022-11-05T20:16:50.756Z,35.95
2022-11-05T20:19:19.219Z,32.92
2022-11-05T20:21:46.000Z,34.42
2022-11-05T20:24:18.828Z,36.35
2022-11-05T20:26:48.720Z,41.08
2022-11-05T20:29:15.146Z,36.45
2022-11-05T20:31:41.555Z,37.22
2022-11-05T20:34:08.824Z,105.43
2022-11-05T20:36:35.204Z,40.28
2022-11-05T20:39:02.856Z,68.95
2022-11-05T20:41:30.544Z,38.97
2022-11-05T20:43:56.971Z,74.15
2022-11-05T20:46:23.697Z,44.63
2022-11-05T20:48:50.611Z,33.22
2022-11-05T20:51:20.127Z,34.05
2022-11-05T20:53:47.633Z,40.10
2022-11-05T20:56:22.620Z,37.00
2022-11-05T20:58:49.452Z,74.53
2022-11-05T21:01:16.660Z,131.85
2022-11-05T21:03:45.214Z,100.25
2022-11-05T21:06:12.688Z,71.25
2022-11-05T21:08:39.505Z,97.97
2022-11-05T21:11:07.009Z,33.28
2022-11-05T21:13:33.953Z,27.95
2022-11-05T21:16:00.959Z,23.05
2022-11-05T21:18:30.188Z,21.48
2022-11-05T21:20:57.411Z,20.70
2022-11-05T21:23:23.856Z,26.05
2022-11-05T21:25:50.343Z,17.95
2022-11-05T21:28:17.160Z,17.55
2022-11-05T21:30:45.718Z,16.05
2022-11-05T21:33:13.611Z,15.82
2022-11-05T21:35:46.113Z,18.65
2022-11-05T21:38:15.111Z,16.63
2022-11-05T21:40:42.463Z,17.73
2022-11-05T21:43:09.116Z,15.40
2022-11-05T21:45:38.219Z,19.88
2022-11-05T21:48:04.911Z,21.48
2022-11-05T21:50:49.828Z,26.05
2022-11-05T21:53:35.813Z,20.38
2022-11-05T21:56:56.733Z,19.20
2022-11-05T21:59:43.210Z,17.83
2022-11-05T22:02:12.019Z,19.13
2022-11-05T22:04:41.745Z,18.02
2022-11-05T22:07:09.491Z,23.05
2022-11-05T22:09:36.342Z,22.98
2022-11-05T22:12:03.087Z,23.88
2022-11-05T22:14:29.695Z,21.85
2022-11-05T22:16:56.874Z,17.00
2022-11-05T22:19:23.824Z,41.22
2022-11-05T22:21:50.930Z,19.50
2022-11-05T22:24:18.087Z,14.98
2022-11-05T22:26:44.719Z,20.48
2022-11-05T22:29:12.081Z,20.02
2022-11-05T22:31:38.515Z,27.33
2022-11-05T22:34:06.053Z,30.45
2022-11-05T22:36:34.167Z,38.58
2022-11-05T22:39:01.231Z,52.42
2022-11-05T22:41:27.667Z,42.17
2022-11-05T22:43:54.210Z,44.95
2022-11-05T22:46:23.058Z,51.50
2022-11-05T22:48:49.835Z,57.05
2022-11-05T22:51:19.899Z,53.38
2022-11-05T22:53:46.780Z,51.95
2022-11-05T22:56:15.439Z,55.35
2022-11-05T22:58:41.879Z,47.22
2022-11-05T23:01:11.719Z,46.58
2022-11-05T23:03:40.614Z,46.67
2022-11-05T23:06:30.036Z,48.13
2022-11-05T23:09:15.919Z,38.85
2022-11-05T23:11:44.269Z,37.78
2022-11-05T23:14:12.767Z,36.38
2022-11-05T23:16:58.138Z,37.55
2022-11-05T23:19:43.455Z,34.33
2022-11-05T23:22:37.852Z,30.02
2022-11-05T23:25:06.048Z,29.17
2022-11-05T23:27:35.442Z,24.90
2022-11-05T23:30:05.396Z,22.90
2022-11-05T23:32:32.567Z,26.38
2022-11-05T23:34:58.982Z,24.77
2022-11-05T23:37:46.317Z,25.65
2022-11-05T23:40:16.509Z,24.85
2022-11-05T23:43:02.172Z,25.85
2022-11-05T23:45:48.486Z,26.90
2022-11-05T23:48:36.091Z,25.13
2022-11-05T23:51:10.862Z,26.00
2022-11-05T23:53:40.043Z,23.98
2022-11-05T23:56:09.681Z,26.05
2022-11-05T23:58:37.205Z,26.23
